createdAt,value
2019-03-04T00:01:16.017Z,12.20
2019-03-04T00:03:47.154Z,12.20
2019-03-04T00:06:18.291Z,12.20
2019-03-04T00:08:49.420Z,12.20
2019-03-04T00:11:20.576Z,12.20
2019-03-04T00:13:51.703Z,12.30
2019-03-04T00:16:22.979Z,12.20
2019-03-04T00:18:55.104Z,12.20
2019-03-04T00:21:26.248Z,12.10
2019-03-04T00:23:57.138Z,12.10
2019-03-04T00:26:28.043Z,12.10
2019-03-04T00:28:59.426Z,12.10
2019-03-04T00:31:30.559Z,12.00
2019-03-04T00:34:01.688Z,12.00
2019-03-04T00:36:32.843Z,12.00
2019-03-04T00:39:05.521Z,12.00
2019-03-04T00:41:38.335Z,12.00
2019-03-04T00:44:09.471Z,12.00
2019-03-04T00:46:40.678Z,12.00
2019-03-04T00:49:11.807Z,12.00
2019-03-04T00:51:42.950Z,12.00
2019-03-04T00:54:14.095Z,12.00
2019-03-04T00:56:45.508Z,12.00
2019-03-04T00:59:17.143Z,12.10
2019-03-04T01:01:48.042Z,12.10
2019-03-04T01:04:19.187Z,12.20
2019-03-04T01:06:50.451Z,12.20
2019-03-04T01:09:21.416Z,12.30
2019-03-04T01:11:52.552Z,12.30
2019-03-04T01:14:23.687Z,12.30
2019-03-04T01:16:55.079Z,12.30
2019-03-04T01:19:26.039Z,12.30
2019-03-04T01:21:56.959Z,12.30
2019-03-04T01:24:35.609Z,12.30
2019-03-04T01:27:06.499Z,12.30
2019-03-04T01:29:37.686Z,12.30
2019-03-04T01:32:08.656Z,12.30
2019-03-04T01:34:40.391Z,12.30
2019-03-04T01:37:11.534Z,12.40
2019-03-04T01:39:42.751Z,12.40
2019-03-04T01:42:13.648Z,12.40
2019-03-04T01:44:44.799Z,12.40
2019-03-04T01:47:15.947Z,12.40
2019-03-04T01:49:47.332Z,12.40
2019-03-04T01:52:18.545Z,12.40
2019-03-04T01:54:49.671Z,12.50
2019-03-04T01:57:20.811Z,12.50
2019-03-04T01:59:51.944Z,12.50
2019-03-04T02:02:23.095Z,12.50
2019-03-04T02:04:54.310Z,12.50
2019-03-04T02:07:25.436Z,12.50
2019-03-04T02:09:56.799Z,12.40
2019-03-04T02:12:28.210Z,12.40
2019-03-04T02:14:59.363Z,12.40
2019-03-04T02:17:30.513Z,12.40
2019-03-04T02:20:01.641Z,12.40
2019-03-04T02:22:34.015Z,12.40
2019-03-04T02:25:05.943Z,12.40
2019-03-04T02:27:36.843Z,12.40
2019-03-04T02:30:12.400Z,12.40
2019-03-04T02:32:43.299Z,12.40
2019-03-04T02:35:14.440Z,12.40
2019-03-04T02:37:45.607Z,12.40
2019-03-04T02:40:16.495Z,12.40
2019-03-04T02:42:47.651Z,12.40
2019-03-04T02:45:19.518Z,12.40
2019-03-04T02:47:50.685Z,12.40
2019-03-04T02:50:21.824Z,12.30
2019-03-04T02:52:53.202Z,12.30
2019-03-04T02:55:24.353Z,12.30
2019-03-04T02:57:55.244Z,12.30
2019-03-04T03:00:26.369Z,12.30
2019-03-04T03:02:57.350Z,12.30
2019-03-04T03:05:28.715Z,12.30
2019-03-04T03:07:59.920Z,12.30
2019-03-04T03:10:31.295Z,12.30
2019-03-04T03:13:02.439Z,12.30
2019-03-04T03:15:33.837Z,12.30
2019-03-04T03:18:04.811Z,12.30
2019-03-04T03:20:35.954Z,12.30
2019-03-04T03:23:07.225Z,12.30
2019-03-04T03:25:38.349Z,12.30
2019-03-04T03:28:09.511Z,12.30
2019-03-04T03:30:40.392Z,12.30
2019-03-04T03:33:11.593Z,12.30
2019-03-04T03:35:42.736Z,12.30
2019-03-04T03:38:13.893Z,12.30
2019-03-04T03:40:45.011Z,12.30
2019-03-04T03:43:16.474Z,12.30
2019-03-04T03:45:48.004Z,12.30
2019-03-04T03:48:18.925Z,12.30
2019-03-04T03:50:49.812Z,12.30
2019-03-04T03:53:20.961Z,12.30
2019-03-04T03:55:51.861Z,12.40
2019-03-04T03:58:25.343Z,12.30
2019-03-04T04:00:55.872Z,12.30
2019-03-04T04:03:27.089Z,12.30
2019-03-04T04:05:58.498Z,12.40
2019-03-04T04:08:29.463Z,12.30
2019-03-04T04:11:00.595Z,12.30
2019-03-04T04:13:31.599Z,12.30
2019-03-04T04:16:02.741Z,12.30
2019-03-04T04:18:35.175Z,12.30
2019-03-04T04:21:06.151Z,12.30
2019-03-04T04:23:37.540Z,12.30
2019-03-04T04:26:20.815Z,12.30
2019-03-04T04:29:02.137Z,12.20
2019-03-04T04:31:33.524Z,12.20
2019-03-04T04:34:04.690Z,12.20
2019-03-04T04:36:35.578Z,12.20
2019-03-04T04:39:07.857Z,12.20
2019-03-04T04:41:38.745Z,12.20
2019-03-04T04:44:09.639Z,12.20
2019-03-04T04:46:56.302Z,12.20
2019-03-04T04:49:29.665Z,12.20
2019-03-04T04:52:01.063Z,12.20
2019-03-04T04:54:32.217Z,12.20
2019-03-04T04:57:04.792Z,12.20
2019-03-04T04:59:35.944Z,12.20
2019-03-04T05:02:07.234Z,12.20
2019-03-04T05:04:38.378Z,12.20
2019-03-04T05:07:09.591Z,12.20
2019-03-04T05:09:40.727Z,12.20
2019-03-04T05:12:11.863Z,12.20
2019-03-04T05:14:42.779Z,12.20
2019-03-04T05:17:13.891Z,12.00
2019-03-04T05:19:46.407Z,11.90
2019-03-04T05:22:17.539Z,11.70
2019-03-04T05:24:48.437Z,11.50
2019-03-04T05:27:19.320Z,11.50
2019-03-04T05:29:50.791Z,11.40
2019-03-04T05:32:21.913Z,11.40
2019-03-04T05:34:52.822Z,11.40
2019-03-04T05:37:23.952Z,10.90
2019-03-04T05:39:55.148Z,9.70
2019-03-04T05:42:27.639Z,8.90
2019-03-04T05:44:58.792Z,8.40
2019-03-04T05:47:29.935Z,8.10
2019-03-04T05:50:01.575Z,8.00
2019-03-04T05:52:32.530Z,7.90
2019-03-04T05:55:04.416Z,7.90
2019-03-04T05:57:35.558Z,7.80
2019-03-04T06:00:10.295Z,7.80
2019-03-04T06:02:41.198Z,7.80
2019-03-04T06:05:12.308Z,7.70
2019-03-04T06:07:46.731Z,7.70
2019-03-04T06:10:17.980Z,7.80
2019-03-04T06:12:49.347Z,7.80
2019-03-04T06:15:22.291Z,7.80
2019-03-04T06:17:54.707Z,7.80
2019-03-04T06:20:25.738Z,7.80
2019-03-04T06:22:57.164Z,7.80
2019-03-04T06:25:28.429Z,7.90
2019-03-04T06:27:59.635Z,7.90
2019-03-04T06:30:30.912Z,8.00
2019-03-04T06:33:02.406Z,8.00
2019-03-04T06:35:34.511Z,8.10
2019-03-04T06:38:05.652Z,8.10
2019-03-04T06:40:36.543Z,8.10
2019-03-04T06:43:07.785Z,8.20
2019-03-04T06:45:39.151Z,8.20
2019-03-04T06:48:10.292Z,8.20
2019-03-04T06:50:52.300Z,8.20
2019-03-04T06:53:42.378Z,8.10
2019-03-04T06:56:43.794Z,8.20
2019-03-04T06:59:46.961Z,8.10
2019-03-04T07:02:18.563Z,8.10
2019-03-04T07:05:08.880Z,8.10
2019-03-04T07:07:40.024Z,8.10
2019-03-04T07:10:11.203Z,8.10
2019-03-04T07:12:42.355Z,8.10
2019-03-04T07:15:13.475Z,8.10
2019-03-04T07:17:44.951Z,8.10
2019-03-04T07:20:16.180Z,8.10
2019-03-04T07:22:48.532Z,8.10
2019-03-04T07:25:20.409Z,8.20
2019-03-04T07:27:52.779Z,8.20
2019-03-04T07:30:23.915Z,8.20
2019-03-04T07:32:54.826Z,8.30
2019-03-04T07:35:25.948Z,8.30
2019-03-04T07:38:14.159Z,8.30
2019-03-04T07:40:45.288Z,8.30
2019-03-04T07:43:16.546Z,8.30
2019-03-04T07:45:47.742Z,8.40
2019-03-04T07:48:18.652Z,8.40
2019-03-04T07:50:49.783Z,8.40
2019-03-04T07:53:20.919Z,8.40
2019-03-04T07:55:52.111Z,8.50
2019-03-04T07:58:23.259Z,8.50
2019-03-04T08:00:54.659Z,8.50
2019-03-04T08:03:25.801Z,8.50
2019-03-04T08:05:57.773Z,8.50
2019-03-04T08:08:29.470Z,8.60
2019-03-04T08:11:25.199Z,8.70
2019-03-04T08:13:59.003Z,8.70
2019-03-04T08:16:30.132Z,8.80
2019-03-04T08:19:02.375Z,8.90
2019-03-04T08:21:33.738Z,8.90
2019-03-04T08:24:04.780Z,8.90
2019-03-04T08:26:36.351Z,8.80
2019-03-04T08:29:08.211Z,8.70
2019-03-04T08:31:39.327Z,8.60
2019-03-04T08:34:10.303Z,8.40
2019-03-04T08:36:41.426Z,8.20
2019-03-04T08:39:12.406Z,8.00
2019-03-04T08:41:43.539Z,7.90
2019-03-04T08:44:14.675Z,7.70
2019-03-04T08:46:45.811Z,7.60
2019-03-04T08:49:16.739Z,7.50
2019-03-04T08:51:47.891Z,7.40
2019-03-04T08:54:18.791Z,7.30
2019-03-04T08:56:49.899Z,7.20
2019-03-04T08:59:21.049Z,7.10
2019-03-04T09:01:51.917Z,7.00
2019-03-04T09:04:23.046Z,6.90
2019-03-04T09:06:54.172Z,6.80
2019-03-04T09:09:25.571Z,6.80
2019-03-04T09:11:56.692Z,6.70
2019-03-04T09:14:30.667Z,6.70
2019-03-04T09:17:01.531Z,6.70
2019-03-04T09:19:32.767Z,6.70
2019-03-04T09:22:03.813Z,6.70
2019-03-04T09:24:35.238Z,6.70
2019-03-04T09:27:07.265Z,6.70
2019-03-04T09:29:38.691Z,6.70
2019-03-04T09:32:10.571Z,6.70
2019-03-04T09:34:41.516Z,6.80
2019-03-04T09:37:12.764Z,6.80
2019-03-04T09:39:43.685Z,6.90
2019-03-04T09:42:20.063Z,6.80
2019-03-04T09:44:51.196Z,6.80
2019-03-04T09:47:22.076Z,6.80
2019-03-04T09:49:53.235Z,6.80
2019-03-04T09:52:24.371Z,6.70
2019-03-04T09:54:55.763Z,6.70
2019-03-04T09:57:26.671Z,6.70
2019-03-04T09:59:57.804Z,6.70
2019-03-04T10:02:37.699Z,6.70
2019-03-04T10:05:49.999Z,6.80
2019-03-04T10:08:36.099Z,6.80
2019-03-04T10:11:56.621Z,6.90
2019-03-04T10:15:08.511Z,7.00
2019-03-04T10:17:59.218Z,7.10
2019-03-04T10:20:56.396Z,7.10
2019-03-04T10:23:42.878Z,7.10
2019-03-04T10:27:13.579Z,7.20
2019-03-04T10:30:22.042Z,7.40
2019-03-04T10:33:32.935Z,7.60
2019-03-04T10:36:16.371Z,7.70
2019-03-04T10:39:30.763Z,7.70
2019-03-04T10:42:28.112Z,7.60
2019-03-04T10:45:13.764Z,7.60
2019-03-04T10:47:44.971Z,7.60
2019-03-04T10:50:16.157Z,7.60
2019-03-04T10:52:47.309Z,7.60
2019-03-04T10:55:18.544Z,7.60
2019-03-04T10:57:50.631Z,7.70
2019-03-04T11:00:21.949Z,7.70
2019-03-04T11:02:53.129Z,7.80
2019-03-04T11:05:24.289Z,7.80
2019-03-04T11:07:55.967Z,7.80
2019-03-04T11:10:27.515Z,7.90
2019-03-04T11:13:00.171Z,8.00
2019-03-04T11:15:31.647Z,8.00
2019-03-04T11:18:02.528Z,8.00
2019-03-04T11:20:34.951Z,8.00
2019-03-04T11:23:07.570Z,8.00
2019-03-04T11:25:38.779Z,8.10
2019-03-04T11:28:09.986Z,8.10
2019-03-04T11:30:41.303Z,8.10
2019-03-04T11:33:12.363Z,8.00
2019-03-04T11:35:43.770Z,8.00
2019-03-04T11:38:35.379Z,8.10
2019-03-04T11:41:07.423Z,8.20
2019-03-04T11:43:38.807Z,8.30
2019-03-04T11:46:10.040Z,8.50
2019-03-04T11:48:40.993Z,8.60
2019-03-04T11:51:11.891Z,8.70
2019-03-04T11:53:43.275Z,8.80
2019-03-04T11:56:14.425Z,8.80
2019-03-04T11:58:45.715Z,8.80
2019-03-04T12:01:21.599Z,8.70
2019-03-04T12:03:52.721Z,8.60
2019-03-04T12:06:23.879Z,8.50
2019-03-04T12:08:54.995Z,8.50
2019-03-04T12:11:26.292Z,8.70
2019-03-04T12:13:57.407Z,8.90
2019-03-04T12:16:28.606Z,9.10
2019-03-04T12:18:59.727Z,9.10
2019-03-04T12:21:30.868Z,9.10
2019-03-04T12:24:02.000Z,9.20
2019-03-04T12:26:34.111Z,9.20
2019-03-04T12:29:06.575Z,9.20
2019-03-04T12:31:44.443Z,9.10
2019-03-04T12:34:25.008Z,9.10
2019-03-04T12:36:54.818Z,8.90
2019-03-04T12:39:25.971Z,8.80
2019-03-04T12:41:57.107Z,8.70
2019-03-04T12:44:28.812Z,8.70
2019-03-04T12:46:59.963Z,8.80
2019-03-04T12:49:31.179Z,8.90
2019-03-04T12:52:02.326Z,9.00
2019-03-04T12:54:33.479Z,8.90
2019-03-04T12:57:04.704Z,8.90
2019-03-04T12:59:35.823Z,9.00
2019-03-04T13:02:08.734Z,8.90
2019-03-04T13:04:39.615Z,8.90
2019-03-04T13:07:11.150Z,8.90
2019-03-04T13:09:42.619Z,8.90
2019-03-04T13:12:14.055Z,9.00
2019-03-04T13:14:45.132Z,9.00
2019-03-04T13:17:16.287Z,9.00
2019-03-04T13:19:47.718Z,8.90
2019-03-04T13:22:18.713Z,8.70
2019-03-04T13:24:49.620Z,8.60
2019-03-04T13:27:23.850Z,8.50
2019-03-04T13:29:53.464Z,8.50
2019-03-04T13:32:24.861Z,8.50
2019-03-04T13:34:56.320Z,8.60
2019-03-04T13:37:27.676Z,8.70
2019-03-04T13:39:58.558Z,8.80
2019-03-04T13:42:29.465Z,8.90
2019-03-04T13:45:00.356Z,9.00
2019-03-04T13:47:31.575Z,9.00
2019-03-04T13:50:02.723Z,9.10
2019-03-04T13:52:33.955Z,9.20
2019-03-04T13:55:10.663Z,9.30
2019-03-04T13:57:41.771Z,9.40
2019-03-04T14:00:16.267Z,9.40
2019-03-04T14:02:47.627Z,9.40
2019-03-04T14:05:19.949Z,9.40
2019-03-04T14:07:51.186Z,9.50
2019-03-04T14:10:23.675Z,9.50
2019-03-04T14:12:54.811Z,9.50
2019-03-04T14:15:28.871Z,9.50
2019-03-04T14:18:00.299Z,9.50
2019-03-04T14:20:31.491Z,9.50
2019-03-04T14:23:02.822Z,9.50
2019-03-04T14:25:34.095Z,9.60
2019-03-04T14:28:05.432Z,9.60
2019-03-04T14:30:36.557Z,9.60
2019-03-04T14:33:07.770Z,9.60
2019-03-04T14:35:39.923Z,9.60
2019-03-04T14:38:11.306Z,9.50
2019-03-04T14:40:42.250Z,9.50
2019-03-04T14:43:13.379Z,9.50
2019-03-04T14:45:44.687Z,9.50
2019-03-04T14:48:17.999Z,9.50
2019-03-04T14:50:49.165Z,9.50
2019-03-04T14:53:20.365Z,9.50
2019-03-04T14:55:52.811Z,9.60
2019-03-04T14:58:23.921Z,9.70
2019-03-04T15:00:54.905Z,9.80
2019-03-04T15:03:27.516Z,9.80
2019-03-04T15:06:06.589Z,9.80
2019-03-04T15:08:31.303Z,9.80
2019-03-04T15:11:02.692Z,9.70
2019-03-04T15:13:33.883Z,9.70
2019-03-04T15:16:05.042Z,9.60
2019-03-04T15:18:36.431Z,9.60
2019-03-04T15:21:07.652Z,9.70
2019-03-04T15:23:39.295Z,9.90
2019-03-04T15:26:10.555Z,9.90
2019-03-04T15:28:42.512Z,9.90
2019-03-04T15:31:13.719Z,9.70
2019-03-04T15:33:45.251Z,9.60
2019-03-04T15:36:16.983Z,9.40
2019-03-04T15:38:48.228Z,9.30
2019-03-04T15:41:19.856Z,9.20
2019-03-04T15:43:51.001Z,9.10
2019-03-04T15:46:23.726Z,9.00
2019-03-04T15:48:54.887Z,9.00
2019-03-04T15:51:27.094Z,8.90
2019-03-04T15:53:58.497Z,8.90
2019-03-04T15:56:29.908Z,8.80
2019-03-04T15:59:01.222Z,8.80
2019-03-04T16:01:32.432Z,8.70
2019-03-04T16:04:03.415Z,8.70
2019-03-04T16:06:36.932Z,8.70
2019-03-04T16:09:14.387Z,8.60
2019-03-04T16:11:45.626Z,8.60
2019-03-04T16:14:17.058Z,8.60
2019-03-04T16:16:48.008Z,8.60
2019-03-04T16:19:23.701Z,8.60
2019-03-04T16:21:54.805Z,8.60
2019-03-04T16:24:26.388Z,8.60
2019-03-04T16:26:57.594Z,8.60
2019-03-04T16:29:36.877Z,8.60
2019-03-04T16:32:01.325Z,8.60
2019-03-04T16:34:32.676Z,8.60
2019-03-04T16:37:06.886Z,8.70
2019-03-04T16:39:40.484Z,8.80
2019-03-04T16:42:12.115Z,8.70
2019-03-04T16:44:43.347Z,8.60
2019-03-04T16:47:14.658Z,8.50
2019-03-04T16:49:45.858Z,8.40
2019-03-04T16:52:17.507Z,8.30
2019-03-04T16:54:48.946Z,8.20
2019-03-04T16:57:20.055Z,8.10
2019-03-04T16:59:51.224Z,8.10
2019-03-04T17:02:22.676Z,8.00
2019-03-04T17:04:53.987Z,8.00
2019-03-04T17:07:25.034Z,8.00
2019-03-04T17:09:56.123Z,7.90
2019-03-04T17:12:27.503Z,7.90
2019-03-04T17:14:58.442Z,7.90
2019-03-04T17:17:30.717Z,7.80
2019-03-04T17:20:05.691Z,7.80
2019-03-04T17:22:38.411Z,7.80
2019-03-04T17:25:10.620Z,7.70
2019-03-04T17:27:41.606Z,7.70
2019-03-04T17:30:16.232Z,7.70
2019-03-04T17:32:47.754Z,7.70
2019-03-04T17:35:20.125Z,7.70
2019-03-04T17:37:52.559Z,7.70
2019-03-04T17:40:30.465Z,7.60
2019-03-04T17:43:05.064Z,7.60
2019-03-04T17:45:38.134Z,7.60
2019-03-04T17:48:14.957Z,7.50
2019-03-04T17:50:45.955Z,7.50
2019-03-04T17:53:17.123Z,7.50
2019-03-04T17:55:48.348Z,7.50
2019-03-04T17:58:19.339Z,7.50
2019-03-04T18:00:55.681Z,7.50
2019-03-04T18:03:28.581Z,7.50
2019-03-04T18:05:59.706Z,7.50
2019-03-04T18:08:30.915Z,7.50
2019-03-04T18:11:02.073Z,7.50
2019-03-04T18:13:33.946Z,7.50
2019-03-04T18:16:05.553Z,7.50
2019-03-04T18:18:37.187Z,7.50
2019-03-04T18:21:08.406Z,7.50
2019-03-04T18:23:39.379Z,7.50
2019-03-04T18:26:24.055Z,7.40
2019-03-04T18:29:29.663Z,7.40
2019-03-04T18:32:17.542Z,7.40
2019-03-04T18:35:27.141Z,7.40
2019-03-04T18:38:25.563Z,7.40
2019-03-04T18:41:53.331Z,7.40
2019-03-04T18:45:05.819Z,7.40
2019-03-04T18:48:09.571Z,7.40
2019-03-04T18:50:41.314Z,7.50
2019-03-04T18:53:12.263Z,7.40
2019-03-04T18:55:43.244Z,7.40
2019-03-04T18:58:14.391Z,7.40
2019-03-04T19:00:45.479Z,7.40
2019-03-04T19:03:16.678Z,7.40
2019-03-04T19:05:47.916Z,7.40
2019-03-04T19:08:19.855Z,7.40
2019-03-04T19:10:51.181Z,7.40
2019-03-04T19:13:22.735Z,7.40
2019-03-04T19:15:57.165Z,7.40
2019-03-04T19:18:28.617Z,7.40
2019-03-04T19:21:00.148Z,7.40
2019-03-04T19:23:31.379Z,7.40
2019-03-04T19:26:03.634Z,7.50
2019-03-04T19:28:35.005Z,7.50
2019-03-04T19:31:06.914Z,7.60
2019-03-04T19:33:38.235Z,7.60
2019-03-04T19:36:09.552Z,7.70
2019-03-04T19:38:41.999Z,7.70
2019-03-04T19:41:13.635Z,7.80
2019-03-04T19:43:46.538Z,7.80
2019-03-04T19:46:17.884Z,7.80
2019-03-04T19:48:49.020Z,7.80
2019-03-04T19:51:20.201Z,7.80
2019-03-04T19:53:51.899Z,7.90
2019-03-04T19:56:23.170Z,7.90
2019-03-04T19:58:54.300Z,7.90
2019-03-04T20:01:25.799Z,7.90
2019-03-04T20:03:57.192Z,8.00
2019-03-04T20:06:28.533Z,7.90
2019-03-04T20:08:59.759Z,8.00
2019-03-04T20:11:30.799Z,8.00
2019-03-04T20:14:02.076Z,8.00
2019-03-04T20:16:32.971Z,7.90
2019-03-04T20:19:04.243Z,7.90
2019-03-04T20:21:35.556Z,7.90
2019-03-04T20:24:06.921Z,7.90
2019-03-04T20:26:38.594Z,8.00
2019-03-04T20:29:09.731Z,7.90
2019-03-04T20:31:40.971Z,7.90
2019-03-04T20:34:12.259Z,8.00
2019-03-04T20:36:43.532Z,8.00
2019-03-04T20:39:16.319Z,8.00
2019-03-04T20:41:47.567Z,7.90
2019-03-04T20:44:18.541Z,7.90
2019-03-04T20:46:49.809Z,7.90
2019-03-04T20:49:21.203Z,7.90
2019-03-04T20:51:53.535Z,7.90
2019-03-04T20:54:24.433Z,7.90
2019-03-04T20:56:55.992Z,7.90
2019-03-04T20:59:27.075Z,7.80
2019-03-04T21:01:58.496Z,7.80
2019-03-04T21:04:30.076Z,7.80
2019-03-04T21:07:02.463Z,7.80
2019-03-04T21:09:33.698Z,7.70
2019-03-04T21:12:05.243Z,7.70
2019-03-04T21:14:37.619Z,7.70
2019-03-04T21:17:10.464Z,7.70
2019-03-04T21:19:42.039Z,7.70
2019-03-04T21:22:13.427Z,7.70
2019-03-04T21:24:44.662Z,7.70
2019-03-04T21:27:16.632Z,7.60
2019-03-04T21:30:35.148Z,7.60
2019-03-04T21:33:18.230Z,7.60
2019-03-04T21:36:36.614Z,7.60
2019-03-04T21:39:07.985Z,7.60
2019-03-04T21:42:00.179Z,7.60
2019-03-04T21:44:53.429Z,7.60
2019-03-04T21:47:30.076Z,7.60
2019-03-04T21:50:01.724Z,7.60
2019-03-04T21:53:06.514Z,7.60
2019-03-04T21:56:14.523Z,7.60
2019-03-04T21:58:46.004Z,7.70
2019-03-04T22:01:48.080Z,7.70
2019-03-04T22:04:19.290Z,7.70
2019-03-04T22:06:50.462Z,7.70
2019-03-04T22:09:21.899Z,7.80
2019-03-04T22:11:54.763Z,7.80
2019-03-04T22:14:25.976Z,7.80
2019-03-04T22:16:57.524Z,7.80
2019-03-04T22:19:28.851Z,7.80
2019-03-04T22:21:59.738Z,7.90
2019-03-04T22:24:30.871Z,7.90
2019-03-04T22:27:02.084Z,7.90
2019-03-04T22:29:33.710Z,7.90
2019-03-04T22:32:04.998Z,7.90
2019-03-04T22:34:36.262Z,8.00
2019-03-04T22:37:07.490Z,8.00
2019-03-04T22:39:38.595Z,8.00
2019-03-04T22:42:09.767Z,8.00
2019-03-04T22:44:40.967Z,8.00
2019-03-04T22:47:13.082Z,8.00
2019-03-04T22:49:44.449Z,8.10
2019-03-04T22:52:15.584Z,8.10
2019-03-04T22:54:46.590Z,8.10
2019-03-04T22:57:17.965Z,8.10
2019-03-04T22:59:48.911Z,8.10
2019-03-04T23:02:21.294Z,8.10
2019-03-04T23:05:08.135Z,8.10
2019-03-04T23:07:45.120Z,8.10
2019-03-04T23:10:38.116Z,8.10
2019-03-04T23:13:43.213Z,8.10
2019-03-04T23:16:17.212Z,8.00
2019-03-04T23:18:48.424Z,8.10
2019-03-04T23:21:19.548Z,8.00
2019-03-04T23:23:50.444Z,8.00
2019-03-04T23:26:21.330Z,8.00
2019-03-04T23:28:52.735Z,8.00
2019-03-04T23:31:24.023Z,8.00
2019-03-04T23:33:55.159Z,8.00
2019-03-04T23:36:26.355Z,8.00
2019-03-04T23:38:57.499Z,7.90
2019-03-04T23:41:32.344Z,7.90
2019-03-04T23:44:07.449Z,7.90
2019-03-04T23:46:38.403Z,7.90
2019-03-04T23:49:10.678Z,7.90
2019-03-04T23:51:43.214Z,7.80
2019-03-04T23:54:15.401Z,7.80
2019-03-04T23:56:46.539Z,7.70
2019-03-04T23:59:18.036Z,7.70
